TOURFACTS.DK  
Stats and Facts from Tour de France.

Tour de France 2019 starts in 348 days
  Riders   Stages   Teams   Summits   Yearly  


 
Search by year

After 2018 - Stage 14:
 15000 starters.
  5163 different riders.
  639 teams.
  2246 stages.
  456 restdays.
  441957.60 km.
  5678 abandonnees.


Top 3
GC
Christopher Froome86:20:55
Rigoberto Urán86:21:49
Romain Bardet86:23:15
Climb
Warren Barguil169 pt.
Primoz Roglic80 pt.
Thomas De Gendt64 pt.
Sprint
Michael Matthews359 pt.
André Greipel234 pt.
Edvald Boasson Hagen220 pt.
Youth
Simon Yates86:27:09
Louis Meintjes86:29:15
Emanuel Buchmann86:54:16
Facts from Tour de France 1935
  |   Stages.  |   Stage winners.  |   Days in yellow  |   Average speed.  |   Route.  |   Teams.  |   All riders.  |   Rookies.  |  

  |   Withdrawls.  |   GC.  |   Polka  |   Green  |   White  |   Summits. (In tour)  |   Miscellaneous.  |  

Stage 11 on July 15th. 1935
         Owning:    Romain Maes    
Pick a stage:  1 2 3 4 5a 5b 6 7 8 9 10 11 12 13a 13b 14a 14b 15 16 17 18a 18b 19a 19b 20a 20b 21
From: Nice    To: CannesDist:126.00 km.
Cat: Col de BrausFRAGabriel Ruozzi
10 points
 
Cat: La TurbieITAOrlando Teani
10 points
 

Average speed for all riders in stage:  26,824 km./hr.
    Place:Name:Team:Time:Km/h:
BELRomain MaesBELBelgium04:24:53  +  00:00:00=28,541 
BELSylvère MaesBELBelgium B04:25:28  +  00:00:35=28,478 
ITAFrancesco CamussoITAItaly04:25:28  +  00:00:35=28,478 
4 ITAOrlando TeaniITACadetti Italiens04:25:50  +  00:00:57=28,439 
5 ITAAmbrogio MorelliITACadetti Italiens04:27:11  +  00:02:18=28,295 
6 FRARoger LapebieFRAFrance B04:27:20  +  00:02:27=28,279 
7 FRAGabriel RuozziTouristes Routiers04:27:26  +  00:02:33=28,269 
8 FRAGeorges SpeicherFRAFrance04:28:04  +  00:03:11=28,202 
9 FRAMaurice ArchambaudFRAFrance04:28:04  +  00:03:11=28,202 
10 SUILéo AmbergCHESwitzerland04:28:04  +  00:03:11=28,202 
11 ITADante GianelloTouristes Routiers04:28:04  +  00:03:11=28,202 
12 FRAHonore GranierTouristes Routiers04:28:31  +  00:03:38=28,155 
13 FRAPaul ChocqueTouristes Routiers04:34:31  +  00:09:38=27,539 
14 FRAJoseph MauclairTouristes Routiers04:35:41  +  00:10:48=27,423 
15 FRACharles PelissierFRAFrance B04:35:41  +  00:10:48=27,423 
16 FRARené ViettoFRAFrance04:35:41  +  00:10:48=27,423 
17 ITAPietro RimoldiITACadetti Italiens04:37:25  +  00:12:32=27,251 
18 ITAAldo BertoccoTouristes Routiers04:37:25  +  00:12:32=27,251 
19 GERBruno RothDEUGermany B04:37:25  +  00:12:32=27,251 
20 GERGeorg UmbenhauerDEUGermany04:37:25  +  00:12:32=27,251 
21 FRABenoit FaureTouristes Routiers04:37:25  +  00:12:32=27,251 
22 BELFélicien VervaeckeBELBelgium04:37:25  +  00:12:32=27,251 
23 ITARafaële Di PacoITAItaly04:43:25  +  00:18:32=26,675 
24 ESPAntonio PriorESPSpain04:43:25  +  00:18:32=26,675 
25 FRAPierre CoganTouristes Routiers04:43:25  +  00:18:32=26,675 
26 ITAOreste BernardoniTouristes Routiers04:43:25  +  00:18:32=26,675 
27 FRAFernand FayolleTouristes Routiers04:43:25  +  00:18:32=26,675 
28 FRAAndré LeducqFRAFrance04:43:25  +  00:18:32=26,675 
29 FRAJulien MoineauFRAFrance B04:43:25  +  00:18:32=26,675 
30 FRAPierre-Marie CloarecTouristes Routiers04:43:25  +  00:18:32=26,675 
31 FRALouis ThiétardTouristes Routiers04:43:25  +  00:18:32=26,675 
32 FRARené BernardTouristes Routiers04:43:25  +  00:18:32=26,675 
33 GEROskar ThierbachDEUGermany04:43:25  +  00:18:32=26,675 
34 SUIFritz HartmannCHESwitzerland04:43:25  +  00:18:32=26,675 
35 BELLouis HardiquestBELBelgium04:43:25  +  00:18:32=26,675 
36 FRARené Le GrevesFRAFrance04:45:20  +  00:20:27=26,495 
37 FRAJules MervielFRAFrance04:45:20  +  00:20:27=26,495 
38 FRAJean FontenayFRAFrance B04:45:20  +  00:20:27=26,495 
39 SUIKurt StettlerCHESwitzerland04:45:20  +  00:20:27=26,495 
40 FRAGeorges LachatTouristes Routiers04:45:20  +  00:20:27=26,495 
41 BELAntoine DignefBELBelgium B04:45:20  +  00:20:27=26,495 
42 BELJules LowieBELBelgium B04:45:20  +  00:20:27=26,495 
43 ESPManuel GarciaTouristes Routiers04:45:20  +  00:20:27=26,495 
44 FRACharles BertyTouristes Routiers04:45:20  +  00:20:27=26,495 
45 FRAGeorges HubatzTouristes Routiers04:45:20  +  00:20:27=26,495 
46 ESPEmiliano AlvarezESPSpain04:50:49  +  00:25:56=25,996 
47 ESPThéodore LadronTouristes Routiers04:50:49  +  00:25:56=25,996 
48 BELJean AertsBELBelgium04:50:49  +  00:25:56=25,996 
49 ESPVicente BacheroESPSpain B04:54:03  +  00:29:10=25,710 
50 GERWilly KutschbachDEUGermany04:54:03  +  00:29:10=25,710 
51 GERGeorge HaendelDEUGermany B04:54:03  +  00:29:10=25,710 
52 FRAClément BistagneTouristes Routiers04:54:03  +  00:29:10=25,710 
53 ESPSalvador CardonaESPSpain04:54:03  +  00:29:10=25,710 
54 GERFerdinand IckesDEUGermany B04:54:03  +  00:29:10=25,710 
55 ITAVasco BergamaschiITAItaly04:56:55  +  00:32:02=25,462 
56 ITALuigi GiacobbeITAItaly04:56:55  +  00:32:02=25,462 
57 GERGeorg StachDEUGermany B05:02:22  +  00:37:29=25,003 
58 GEROtto WeckerlingDEUGermany05:05:26  +  00:40:33=24,752 


Todays birthdays.

1877  Antoine Perrichon
1878  Auguste Berthault
1911  Théo Herckenrath
1924  Carlo Lafranchi
1931  Armand Di Caro
1937  Jean-Claude Lebaube
1951  Giovanni Battaglin
1961  Pascal Jules
1962  Jean-Claude Leclercq
1976  Janek Tombak
1978  Francisco Pérez
1983  Dries Devenyns




Visits: